Bookmark and Share
Track history (hours):
 

S-y Atmosphere

Last reported at 2013-Nov-02 05:33 UTC. Time now 2014-Apr-19 05:14 UTC.
Position N 37°38' W 000°35'.
Warning: this ship's position is months out of date.

Length 53 m; draft 4 m.

Type: Sailing vessel. MMSI: 319726000.

NotesDate/timePositionNaut miles runAvg speedWind from/ knotsBaromVisibWave heightAir tempDewpointWater temp
2013-Nov-02 05:33N 37°38' W 000°35'1111.2
2013-Nov-02 04:33N 37°47' W 000°27'1111.4
2013-Nov-02 03:33N 37°57' W 000°19'3311.1
2013-Nov-02 00:33N 38°25' E 000°03'1611.1
2013-Nov-01 23:09N 38°38' E 000°14'811.3
2013-Nov-01 22:29N 38°44' E 000°20'1011.0
2013-Nov-01 21:33N 38°52' E 000°29'1210.5
2013-Nov-01 20:23N 39°00' E 000°40'910.6
2013-Nov-01 19:32N 39°07' E 000°48'3511.2
2013-Nov-01 16:25N 39°34' E 001°16'1111.8
2013-Nov-01 15:30N 39°43' E 001°24'1111.7
2013-Nov-01 14:33N 39°52' E 001°33'1211.6
2013-Nov-01 13:34N 40°01' E 001°42'1211.7
2013-Nov-01 12:34N 40°10' E 001°52'1211.6
2013-Nov-01 11:34N 40°19' E 002°02'1211.9
2013-Nov-01 10:33N 40°27' E 002°14'1211.9
2013-Nov-01 09:34N 40°35' E 002°25'1211.8
2013-Nov-01 08:33N 40°42' E 002°37'1212.1
2013-Nov-01 07:33N 40°50' E 002°49'1212.4
2013-Nov-01 06:33N 40°59' E 003°01'1212.4
2013-Nov-01 05:34N 41°09' E 003°10'1211.8
2013-Nov-01 04:34N 41°18' E 003°20'1212.0
2013-Nov-01 03:34N 41°27' E 003°31'1212.1
2013-Nov-01 02:34N 41°36' E 003°42'1212.2
2013-Nov-01 01:34N 41°45' E 003°53'1212.1
2013-Nov-01 00:34N 41°54' E 004°04'1211.9
2013-Oct-31 23:34N 42°03' E 004°15'1211.9
2013-Oct-31 22:33N 42°12' E 004°25'1211.8
2013-Oct-31 21:34N 42°20' E 004°36'1212.0
2013-Oct-31 20:33N 42°29' E 004°48'1212.1
2013-Oct-31 19:34N 42°37' E 004°59'1212.1
2013-Oct-31 18:33N 42°47' E 005°10'1212.3
2013-Oct-31 17:32N 42°56' E 005°21'1211.8
2013-Oct-31 16:34N 43°04' E 005°32'7 3.4
2013-Oct-31 14:29N 43°10' E 005°37'  
2013-Oct-28 15:33N 43°10' E 005°37'  

Dump ship's entire track history

sailing weather and tide predictions

S-y Atmosphere — ZCGY6 — position and weather